createdAt,value
2022-09-17T00:00:36.000Z,41.5
2022-09-17T00:01:46.000Z,41.6
2022-09-17T00:02:56.000Z,41.5
2022-09-17T00:04:06.000Z,41.6
2022-09-17T00:05:16.000Z,41.6
2022-09-17T00:06:26.000Z,41.6
2022-09-17T00:07:36.000Z,41.6
2022-09-17T00:08:47.000Z,41.6
2022-09-17T00:09:57.000Z,41.6
2022-09-17T00:11:07.000Z,41.6
2022-09-17T00:12:17.000Z,41.6
2022-09-17T00:13:27.000Z,41.6
2022-09-17T00:14:36.000Z,41.6
2022-09-17T00:15:46.000Z,41.6
2022-09-17T00:16:56.000Z,41.6
2022-09-17T00:18:06.000Z,41.6
2022-09-17T00:19:17.000Z,41.6
2022-09-17T00:20:27.000Z,41.6
2022-09-17T00:21:36.000Z,41.7
2022-09-17T00:22:45.000Z,41.7
2022-09-17T00:23:54.000Z,41.7
2022-09-17T00:25:03.000Z,41.7
2022-09-17T00:26:13.000Z,41.7
2022-09-17T00:27:23.000Z,41.7
2022-09-17T00:28:34.000Z,41.7
2022-09-17T00:29:44.000Z,41.7
2022-09-17T00:30:54.000Z,41.7
2022-09-17T00:32:04.000Z,41.7
2022-09-17T00:33:14.000Z,41.7
2022-09-17T00:34:24.000Z,41.7
2022-09-17T00:35:34.000Z,41.7
2022-09-17T00:36:44.000Z,41.7
2022-09-17T00:37:54.000Z,41.7
2022-09-17T00:39:05.000Z,41.7
2022-09-17T00:40:14.000Z,41.7
2022-09-17T00:41:24.000Z,41.7
2022-09-17T00:42:34.000Z,41.7
2022-09-17T00:43:44.000Z,41.8
2022-09-17T00:44:54.000Z,41.8
2022-09-17T00:46:04.000Z,41.8
2022-09-17T00:47:14.000Z,41.8
2022-09-17T00:48:24.000Z,41.8
2022-09-17T00:49:33.000Z,41.8
2022-09-17T00:50:43.000Z,41.8
2022-09-17T00:51:52.000Z,41.8
2022-09-17T00:53:01.000Z,41.8
2022-09-17T00:54:11.000Z,41.8
2022-09-17T00:55:21.000Z,41.8
2022-09-17T00:56:31.000Z,41.8
2022-09-17T00:57:42.000Z,41.8
2022-09-17T00:58:52.000Z,41.8
2022-09-17T01:00:02.000Z,41.8
2022-09-17T01:01:12.000Z,41.8
2022-09-17T01:02:22.000Z,41.8
2022-09-17T01:03:32.000Z,41.8
2022-09-17T01:04:42.000Z,41.9
2022-09-17T01:05:52.000Z,41.9
2022-09-17T01:07:02.000Z,41.9
2022-09-17T01:08:12.000Z,41.9
2022-09-17T01:09:22.000Z,41.9
2022-09-17T01:10:32.000Z,41.9
2022-09-17T01:11:42.000Z,41.9
2022-09-17T01:12:52.000Z,41.9
2022-09-17T01:14:02.000Z,41.9
2022-09-17T01:15:12.000Z,41.9
2022-09-17T01:16:21.000Z,41.9
2022-09-17T01:17:31.000Z,42
2022-09-17T01:18:41.000Z,41.9
2022-09-17T01:19:50.000Z,42
2022-09-17T01:20:59.000Z,42
2022-09-17T01:22:09.000Z,42
2022-09-17T01:23:19.000Z,42
2022-09-17T01:24:29.000Z,42
2022-09-17T01:25:39.000Z,42
2022-09-17T01:26:50.000Z,42
2022-09-17T01:28:00.000Z,42
2022-09-17T01:29:10.000Z,42
2022-09-17T01:30:20.000Z,42
2022-09-17T01:31:30.000Z,42
2022-09-17T01:32:40.000Z,42
2022-09-17T01:33:50.000Z,42
2022-09-17T01:35:00.000Z,42
2022-09-17T01:36:10.000Z,42
2022-09-17T01:37:20.000Z,42
2022-09-17T01:38:30.000Z,42
2022-09-17T01:39:40.000Z,42
2022-09-17T01:40:50.000Z,42
2022-09-17T01:42:00.000Z,42
2022-09-17T01:43:10.000Z,42
2022-09-17T01:44:19.000Z,42
2022-09-17T01:45:28.000Z,42
2022-09-17T01:47:48.000Z,42
2022-09-17T01:48:57.000Z,42
2022-09-17T01:50:07.000Z,42
2022-09-17T01:51:16.000Z,42
2022-09-17T01:52:25.000Z,42
2022-09-17T01:53:35.000Z,42
2022-09-17T01:54:46.000Z,42
2022-09-17T01:55:56.000Z,42
2022-09-17T01:57:06.000Z,42
2022-09-17T01:58:16.000Z,42.1
2022-09-17T01:59:26.000Z,42
2022-09-17T02:00:36.000Z,42
2022-09-17T02:01:46.000Z,42.1
2022-09-17T02:02:56.000Z,42.1
2022-09-17T02:04:06.000Z,42.1
2022-09-17T02:05:17.000Z,42.1
2022-09-17T02:06:27.000Z,42.1
2022-09-17T02:07:36.000Z,42.1
2022-09-17T02:08:46.000Z,42.1
2022-09-17T02:09:56.000Z,42.1
2022-09-17T02:11:06.000Z,42.1
2022-09-17T02:12:16.000Z,42.1
2022-09-17T02:13:26.000Z,42.1
2022-09-17T02:14:36.000Z,42.1
2022-09-17T02:15:46.000Z,42.1
2022-09-17T02:16:56.000Z,42.1
2022-09-17T02:18:05.000Z,42.1
2022-09-17T02:19:14.000Z,42.1
2022-09-17T02:20:24.000Z,42.1
2022-09-17T02:21:34.000Z,42.1
2022-09-17T02:22:44.000Z,42.1
2022-09-17T02:23:54.000Z,42.1
2022-09-17T02:25:05.000Z,42.1
2022-09-17T02:26:15.000Z,42.1
2022-09-17T02:27:25.000Z,42.1
2022-09-17T02:28:34.000Z,42.1
2022-09-17T02:29:44.000Z,42.1
2022-09-17T02:30:54.000Z,42.1
2022-09-17T02:32:04.000Z,42.1
2022-09-17T02:33:14.000Z,42.1
2022-09-17T02:34:25.000Z,42.1
2022-09-17T02:35:35.000Z,42.3
2022-09-17T02:36:45.000Z,42.3
2022-09-17T02:37:55.000Z,42.3
2022-09-17T02:39:05.000Z,42.1
2022-09-17T02:40:15.000Z,42.3
2022-09-17T02:41:25.000Z,42.3
2022-09-17T02:42:34.000Z,42.3
2022-09-17T02:43:44.000Z,42.3
2022-09-17T02:44:53.000Z,42.3
2022-09-17T02:46:02.000Z,42.3
2022-09-17T02:47:12.000Z,42.3
2022-09-17T02:48:22.000Z,42.3
2022-09-17T02:49:32.000Z,42.3
2022-09-17T02:50:42.000Z,42.3
2022-09-17T02:51:52.000Z,42.3
2022-09-17T02:53:02.000Z,42.3
2022-09-17T02:54:13.000Z,42.3
2022-09-17T02:55:23.000Z,42.3
2022-09-17T02:56:33.000Z,42.3
2022-09-17T02:57:43.000Z,42.3
2022-09-17T02:58:53.000Z,42.3
2022-09-17T03:00:03.000Z,42.3
2022-09-17T03:01:12.000Z,42.3
2022-09-17T03:02:22.000Z,42.3
2022-09-17T03:03:33.000Z,42.3
2022-09-17T03:04:43.000Z,42.3
2022-09-17T03:05:53.000Z,42.3
2022-09-17T03:07:03.000Z,42.3
2022-09-17T03:08:13.000Z,42.3
2022-09-17T03:09:22.000Z,42.4
2022-09-17T03:10:31.000Z,42.3
2022-09-17T03:11:40.000Z,42.3
2022-09-17T03:12:50.000Z,42.3
2022-09-17T03:14:00.000Z,42.3
2022-09-17T03:15:10.000Z,42.3
2022-09-17T03:16:20.000Z,42.4
2022-09-17T03:17:30.000Z,42.4
2022-09-17T03:19:50.000Z,42.4
2022-09-17T03:21:00.000Z,42.4
2022-09-17T03:22:10.000Z,42.4
2022-09-17T03:23:21.000Z,42.4
2022-09-17T03:24:31.000Z,42.4
2022-09-17T03:25:41.000Z,42.4
2022-09-17T03:28:01.000Z,42.4
2022-09-17T03:29:10.000Z,42.4
2022-09-17T03:30:19.000Z,42.4
2022-09-17T03:31:29.000Z,42.4
2022-09-17T03:33:50.000Z,42.4
2022-09-17T03:35:00.000Z,42.4
2022-09-17T03:36:10.000Z,42.4
2022-09-17T03:37:20.000Z,42.4
2022-09-17T03:38:30.000Z,42.4
2022-09-17T03:39:40.000Z,42.4
2022-09-17T03:40:50.000Z,42.4
2022-09-17T03:42:00.000Z,42.4
2022-09-17T03:43:11.000Z,42.4
2022-09-17T03:44:21.000Z,42.4
2022-09-17T03:45:30.000Z,42.4
2022-09-17T03:46:40.000Z,42.4
2022-09-17T03:47:50.000Z,42.4
2022-09-17T03:49:00.000Z,42.4
2022-09-17T03:50:10.000Z,42.4
2022-09-17T03:51:20.000Z,42.4
2022-09-17T03:52:31.000Z,42.4
2022-09-17T03:53:41.000Z,42.4
2022-09-17T03:54:50.000Z,42.4
2022-09-17T03:55:59.000Z,42.4
2022-09-17T03:57:08.000Z,42.4
2022-09-17T03:58:17.000Z,42.4
2022-09-17T03:59:27.000Z,42.4
2022-09-17T04:00:37.000Z,42.5
2022-09-17T04:01:48.000Z,42.5
2022-09-17T04:02:58.000Z,42.4
2022-09-17T04:04:08.000Z,42.5
2022-09-17T04:05:18.000Z,42.4
2022-09-17T04:07:38.000Z,42.4
2022-09-17T04:08:47.000Z,42.4
2022-09-17T04:09:56.000Z,42.5
2022-09-17T04:11:07.000Z,42.5
2022-09-17T04:12:16.000Z,42.5
2022-09-17T04:13:25.000Z,42.5
2022-09-17T04:14:35.000Z,42.5
2022-09-17T04:15:45.000Z,42.5
2022-09-17T04:16:55.000Z,42.5
2022-09-17T04:18:05.000Z,42.5
2022-09-17T04:19:15.000Z,42.5
2022-09-17T04:20:26.000Z,42.5
2022-09-17T04:21:36.000Z,42.5
2022-09-17T04:22:46.000Z,42.5
2022-09-17T04:23:56.000Z,42.5
2022-09-17T04:25:06.000Z,42.5
2022-09-17T04:26:16.000Z,42.5
2022-09-17T04:27:26.000Z,42.5
2022-09-17T04:28:35.000Z,42.5
2022-09-17T04:29:45.000Z,42.5
2022-09-17T04:32:06.000Z,42.5
2022-09-17T04:33:16.000Z,42.5
2022-09-17T04:34:26.000Z,42.5
2022-09-17T04:35:36.000Z,42.5
2022-09-17T04:36:46.000Z,42.5
2022-09-17T04:37:55.000Z,42.5
2022-09-17T04:39:04.000Z,42.5
2022-09-17T04:40:15.000Z,42.5
2022-09-17T04:41:25.000Z,42.5
2022-09-17T04:42:35.000Z,42.5
2022-09-17T04:43:45.000Z,42.5
2022-09-17T04:44:55.000Z,42.5
2022-09-17T04:46:05.000Z,42.5
2022-09-17T04:47:15.000Z,42.5
2022-09-17T04:48:25.000Z,42.5
2022-09-17T04:49:35.000Z,42.5
2022-09-17T04:50:46.000Z,42.5
2022-09-17T04:51:56.000Z,42.5
2022-09-17T04:53:06.000Z,42.5
2022-09-17T04:54:15.000Z,42.5
2022-09-17T04:55:25.000Z,42.5
2022-09-17T04:56:35.000Z,42.5
2022-09-17T04:57:45.000Z,42.5
2022-09-17T04:58:55.000Z,42.5
2022-09-17T05:00:06.000Z,42.5
2022-09-17T05:01:16.000Z,42.5
2022-09-17T05:02:25.000Z,42.5
2022-09-17T05:03:34.000Z,42.5
2022-09-17T05:04:43.000Z,42.5
2022-09-17T05:05:52.000Z,42.5
2022-09-17T05:07:02.000Z,42.5
2022-09-17T05:08:12.000Z,42.5
2022-09-17T05:09:23.000Z,42.5
2022-09-17T05:10:33.000Z,42.5
2022-09-17T05:11:43.000Z,42.5
2022-09-17T05:12:53.000Z,42.5
2022-09-17T05:14:03.000Z,42.5
2022-09-17T05:15:13.000Z,42.6
2022-09-17T05:16:23.000Z,42.5
2022-09-17T05:17:33.000Z,42.5
2022-09-17T05:18:43.000Z,42.6
2022-09-17T05:19:54.000Z,42.6
2022-09-17T05:21:03.000Z,42.5
2022-09-17T05:22:13.000Z,42.5
2022-09-17T05:23:23.000Z,42.6
2022-09-17T05:24:33.000Z,42.6
2022-09-17T05:25:43.000Z,42.6
2022-09-17T05:26:53.000Z,42.6
2022-09-17T05:28:03.000Z,42.6
2022-09-17T05:29:13.000Z,42.6
2022-09-17T05:30:23.000Z,42.6
2022-09-17T05:31:32.000Z,42.6
2022-09-17T05:32:41.000Z,42.6
2022-09-17T05:33:50.000Z,42.6
2022-09-17T05:35:00.000Z,42.6
2022-09-17T05:36:09.000Z,42.6
2022-09-17T05:38:30.000Z,42.6
2022-09-17T05:39:40.000Z,42.6
2022-09-17T05:40:50.000Z,42.6
2022-09-17T05:42:00.000Z,42.6
2022-09-17T05:43:10.000Z,42.6
2022-09-17T05:44:20.000Z,42.6
2022-09-17T05:45:30.000Z,42.6
2022-09-17T05:46:40.000Z,42.6
2022-09-17T05:47:50.000Z,42.6
2022-09-17T05:49:01.000Z,42.6
2022-09-17T05:50:11.000Z,42.6
2022-09-17T05:51:20.000Z,42.6
2022-09-17T05:52:30.000Z,42.6
2022-09-17T05:53:40.000Z,42.6
2022-09-17T05:54:50.000Z,42.6
2022-09-17T05:56:00.000Z,42.6
2022-09-17T05:57:10.000Z,42.6
2022-09-17T05:58:21.000Z,42.6
2022-09-17T05:59:30.000Z,42.6
2022-09-17T06:00:39.000Z,42.6
2022-09-17T06:01:48.000Z,42.6
2022-09-17T06:02:57.000Z,42.6
2022-09-17T06:04:07.000Z,42.6
2022-09-17T06:05:17.000Z,42.6
2022-09-17T06:06:26.000Z,42.6
2022-09-17T06:07:36.000Z,42.6
2022-09-17T06:08:46.000Z,42.6
2022-09-17T06:09:56.000Z,42.6
2022-09-17T06:11:06.000Z,42.6
2022-09-17T06:12:16.000Z,42.6
2022-09-17T06:13:26.000Z,42.6
2022-09-17T06:14:36.000Z,42.6
2022-09-17T06:15:46.000Z,42.6
2022-09-17T06:16:57.000Z,42.6
2022-09-17T06:18:07.000Z,42.6
2022-09-17T06:19:17.000Z,42.6
2022-09-17T06:20:27.000Z,42.6
2022-09-17T06:21:37.000Z,42.6
2022-09-17T06:22:46.000Z,42.6
2022-09-17T06:23:56.000Z,42.6
2022-09-17T06:25:06.000Z,42.6
2022-09-17T06:26:16.000Z,42.6
2022-09-17T06:27:27.000Z,42.6
2022-09-17T06:28:37.000Z,42.6
2022-09-17T06:29:47.000Z,42.6
2022-09-17T06:30:56.000Z,42.6
2022-09-17T06:32:05.000Z,42.6
2022-09-17T06:33:15.000Z,42.6
2022-09-17T06:34:25.000Z,42.6
2022-09-17T06:35:35.000Z,42.6
2022-09-17T06:36:46.000Z,42.5
2022-09-17T06:37:56.000Z,42.6
2022-09-17T06:39:06.000Z,42.6
2022-09-17T06:40:16.000Z,42.6
2022-09-17T06:41:26.000Z,42.6
2022-09-17T06:42:36.000Z,42.6
2022-09-17T06:43:46.000Z,42.6
2022-09-17T06:44:56.000Z,42.6
2022-09-17T06:46:06.000Z,42.6
2022-09-17T06:47:16.000Z,42.6
2022-09-17T06:48:26.000Z,42.5
2022-09-17T06:49:36.000Z,42.5
2022-09-17T06:50:46.000Z,42.6
2022-09-17T06:51:56.000Z,42.5
2022-09-17T06:53:06.000Z,42.5
2022-09-17T06:54:16.000Z,42.5
2022-09-17T06:55:25.000Z,42.5
2022-09-17T06:56:35.000Z,42.5
2022-09-17T06:57:45.000Z,42.5
2022-09-17T06:58:55.000Z,42.5
2022-09-17T07:00:05.000Z,42.5
2022-09-17T07:01:15.000Z,42.5
2022-09-17T07:02:25.000Z,42.5
2022-09-17T07:03:35.000Z,42.5
2022-09-17T07:04:45.000Z,42.6
2022-09-17T07:05:56.000Z,42.5
2022-09-17T07:07:06.000Z,42.5
2022-09-17T07:08:16.000Z,42.5
2022-09-17T07:09:26.000Z,42.5
2022-09-17T07:10:36.000Z,42.5
2022-09-17T07:11:45.000Z,42.5
2022-09-17T07:12:55.000Z,42.5
2022-09-17T07:14:05.000Z,42.5
2022-09-17T07:15:15.000Z,42.5
2022-09-17T07:16:26.000Z,42.5
2022-09-17T07:17:36.000Z,42.5
2022-09-17T07:18:46.000Z,42.5
2022-09-17T07:19:55.000Z,42.5
2022-09-17T07:21:04.000Z,42.5
2022-09-17T07:22:13.000Z,42.5
2022-09-17T07:23:22.000Z,42.5
2022-09-17T07:24:31.000Z,42.5
2022-09-17T07:25:41.000Z,42.5
2022-09-17T07:26:51.000Z,42.5
2022-09-17T07:28:01.000Z,42.5
2022-09-17T07:29:11.000Z,42.5
2022-09-17T07:30:21.000Z,42.5
2022-09-17T07:31:31.000Z,42.5
2022-09-17T07:32:41.000Z,42.5
2022-09-17T07:33:51.000Z,42.5
2022-09-17T07:35:02.000Z,42.5
2022-09-17T07:36:12.000Z,42.5
2022-09-17T07:37:22.000Z,42.5
2022-09-17T07:38:32.000Z,42.5
2022-09-17T07:39:42.000Z,42.5
2022-09-17T07:40:51.000Z,42.5
2022-09-17T07:42:01.000Z,42.5
2022-09-17T07:43:11.000Z,42.5
2022-09-17T07:44:21.000Z,42.4
2022-09-17T07:45:32.000Z,42.5
2022-09-17T07:46:42.000Z,42.4
2022-09-17T07:47:52.000Z,42.5
2022-09-17T07:49:01.000Z,42.5
2022-09-17T07:50:10.000Z,42.5
2022-09-17T07:51:19.000Z,42.5
2022-09-17T07:52:28.000Z,42.4
2022-09-17T07:53:39.000Z,42.4
2022-09-17T07:54:49.000Z,42.5
2022-09-17T07:55:59.000Z,42.4
2022-09-17T07:57:09.000Z,42.4
2022-09-17T07:58:19.000Z,42.4
2022-09-17T07:59:29.000Z,42.4
2022-09-17T08:00:39.000Z,42.4
2022-09-17T08:01:49.000Z,42.4
2022-09-17T08:02:59.000Z,42.4
2022-09-17T08:04:10.000Z,42.4
2022-09-17T08:05:20.000Z,42.4
2022-09-17T08:06:30.000Z,42.4
2022-09-17T08:07:39.000Z,42.4
2022-09-17T08:08:49.000Z,42.4
2022-09-17T08:09:59.000Z,42.4
2022-09-17T08:11:09.000Z,42.4
2022-09-17T08:12:19.000Z,42.4
2022-09-17T08:13:30.000Z,42.4
2022-09-17T08:14:40.000Z,42.4
2022-09-17T08:15:49.000Z,42.4
2022-09-17T08:16:58.000Z,42.4
2022-09-17T08:18:08.000Z,42.4
2022-09-17T08:19:17.000Z,42.4
2022-09-17T08:20:26.000Z,42.4
2022-09-17T08:21:36.000Z,42.4
2022-09-17T08:22:47.000Z,42.4
2022-09-17T08:23:57.000Z,42.4
2022-09-17T08:25:07.000Z,42.4
2022-09-17T08:26:17.000Z,42.4
2022-09-17T08:27:27.000Z,42.4
2022-09-17T08:28:36.000Z,42.4
2022-09-17T08:29:45.000Z,42.4
2022-09-17T08:30:54.000Z,42.4
2022-09-17T08:32:04.000Z,42.4
2022-09-17T08:33:14.000Z,42.4
2022-09-17T08:34:24.000Z,42.4
2022-09-17T08:35:34.000Z,42.3
2022-09-17T08:36:44.000Z,42.3
2022-09-17T08:37:54.000Z,42.4
2022-09-17T08:39:04.000Z,42.3
2022-09-17T08:40:14.000Z,42.3
2022-09-17T08:41:24.000Z,42.3
2022-09-17T08:42:35.000Z,42.3
2022-09-17T08:43:45.000Z,42.3
2022-09-17T08:44:55.000Z,42.3
2022-09-17T08:46:05.000Z,42.3
2022-09-17T08:47:14.000Z,42.3
2022-09-17T08:48:24.000Z,42.3
2022-09-17T08:49:34.000Z,42.3
2022-09-17T08:50:44.000Z,42.3
2022-09-17T08:51:55.000Z,42.3
2022-09-17T08:53:05.000Z,42.3
2022-09-17T08:54:15.000Z,42.3
2022-09-17T08:55:24.000Z,42.3
2022-09-17T08:56:33.000Z,42.3
2022-09-17T08:57:42.000Z,42.3
2022-09-17T08:58:51.000Z,42.3
2022-09-17T09:00:01.000Z,42.3
2022-09-17T09:01:12.000Z,42.3
2022-09-17T09:02:22.000Z,42.3
2022-09-17T09:03:32.000Z,42.3
2022-09-17T09:04:42.000Z,42.2
2022-09-17T09:05:52.000Z,42.2
2022-09-17T09:07:02.000Z,42.2
2022-09-17T09:08:12.000Z,42.2
2022-09-17T09:09:22.000Z,42.1
2022-09-17T09:10:32.000Z,42.2
2022-09-17T09:11:43.000Z,42.1
2022-09-17T09:12:53.000Z,42.1
2022-09-17T09:14:02.000Z,42.1
2022-09-17T09:15:12.000Z,42.1
2022-09-17T09:16:22.000Z,42.1
2022-09-17T09:17:32.000Z,42.1
2022-09-17T09:18:42.000Z,42.1
2022-09-17T09:19:52.000Z,42.1
2022-09-17T09:21:03.000Z,42.1
2022-09-17T09:22:12.000Z,42.1
2022-09-17T09:23:21.000Z,42.1
2022-09-17T09:24:30.000Z,42.1
2022-09-17T09:25:39.000Z,42.1
2022-09-17T09:26:49.000Z,42.1
2022-09-17T09:27:59.000Z,42.1
2022-09-17T09:29:09.000Z,42.1
2022-09-17T09:30:20.000Z,42.1
2022-09-17T09:31:30.000Z,42.1
2022-09-17T09:32:40.000Z,42
2022-09-17T09:33:50.000Z,42.1
2022-09-17T09:35:00.000Z,42.1
2022-09-17T09:36:10.000Z,42
2022-09-17T09:37:20.000Z,42
2022-09-17T09:38:30.000Z,42
2022-09-17T09:39:40.000Z,42
2022-09-17T09:40:50.000Z,42
2022-09-17T09:42:00.000Z,42
2022-09-17T09:43:10.000Z,42
2022-09-17T09:44:20.000Z,42
2022-09-17T09:45:30.000Z,42
2022-09-17T09:46:40.000Z,42
2022-09-17T09:47:50.000Z,42
2022-09-17T09:48:59.000Z,42
2022-09-17T09:50:09.000Z,42
2022-09-17T09:51:18.000Z,42
2022-09-17T09:52:27.000Z,42
2022-09-17T09:53:37.000Z,42
2022-09-17T09:54:47.000Z,42
2022-09-17T09:55:57.000Z,42
2022-09-17T09:57:07.000Z,42
2022-09-17T09:58:17.000Z,42
2022-09-17T10:01:48.000Z,42
2022-09-17T10:02:58.000Z,42
2022-09-17T10:04:08.000Z,42
2022-09-17T10:05:18.000Z,42
2022-09-17T10:06:27.000Z,42
2022-09-17T10:07:36.000Z,42
2022-09-17T10:08:47.000Z,42
2022-09-17T10:09:57.000Z,42
2022-09-17T10:11:07.000Z,42
2022-09-17T10:12:17.000Z,42
2022-09-17T10:13:27.000Z,42
2022-09-17T10:14:37.000Z,42
2022-09-17T10:15:47.000Z,42
2022-09-17T10:16:56.000Z,42
2022-09-17T10:18:06.000Z,42
2022-09-17T10:19:16.000Z,42
2022-09-17T10:20:25.000Z,42
2022-09-17T10:21:35.000Z,42
2022-09-17T10:22:45.000Z,42
2022-09-17T10:23:55.000Z,42
2022-09-17T10:25:05.000Z,42
2022-09-17T10:26:15.000Z,42
2022-09-17T10:27:25.000Z,42
2022-09-17T10:28:36.000Z,42
2022-09-17T10:29:46.000Z,42
2022-09-17T10:30:56.000Z,42
2022-09-17T10:32:06.000Z,41.8
2022-09-17T10:33:16.000Z,41.8
2022-09-17T10:34:26.000Z,41.8
2022-09-17T10:35:35.000Z,41.8
2022-09-17T10:36:45.000Z,41.8
2022-09-17T10:37:56.000Z,41.8
2022-09-17T10:39:06.000Z,41.8
2022-09-17T10:40:16.000Z,41.7
2022-09-17T10:41:26.000Z,41.7
2022-09-17T10:42:36.000Z,41.7
2022-09-17T10:43:45.000Z,41.7
2022-09-17T10:44:54.000Z,41.7
2022-09-17T10:46:04.000Z,41.7
2022-09-17T10:47:14.000Z,41.7
2022-09-17T10:48:25.000Z,41.6
2022-09-17T10:49:35.000Z,41.6
2022-09-17T10:50:45.000Z,41.6
2022-09-17T10:51:55.000Z,41.5
2022-09-17T10:53:05.000Z,41.5
2022-09-17T10:54:15.000Z,41.5
2022-09-17T10:55:25.000Z,41.5
2022-09-17T10:56:35.000Z,41.5
2022-09-17T10:57:46.000Z,41.5
2022-09-17T10:58:56.000Z,41.4
2022-09-17T11:00:05.000Z,41.4
2022-09-17T11:01:15.000Z,41.4
2022-09-17T11:02:25.000Z,41.4
2022-09-17T11:03:35.000Z,41.3
2022-09-17T11:04:45.000Z,41.3
2022-09-17T11:05:55.000Z,41.3
2022-09-17T11:07:05.000Z,41.3
2022-09-17T11:08:15.000Z,41.3
2022-09-17T11:09:24.000Z,41.2
2022-09-17T11:10:33.000Z,41.2
2022-09-17T11:11:42.000Z,41.2
2022-09-17T11:12:52.000Z,41.3
2022-09-17T11:14:01.000Z,41.2
2022-09-17T11:15:10.000Z,41.3
2022-09-17T11:16:21.000Z,41.2
2022-09-17T11:17:31.000Z,41.2
2022-09-17T11:18:41.000Z,41.2
2022-09-17T11:19:51.000Z,41.3
2022-09-17T11:21:01.000Z,41.2
2022-09-17T11:22:11.000Z,41.3
2022-09-17T11:23:21.000Z,41.3
2022-09-17T11:24:31.000Z,41.3
2022-09-17T11:25:41.000Z,41.3
2022-09-17T11:26:52.000Z,41.2
2022-09-17T11:28:02.000Z,41.2
2022-09-17T11:29:12.000Z,41.2
2022-09-17T11:30:21.000Z,41.2
2022-09-17T11:31:31.000Z,41.2
2022-09-17T11:32:41.000Z,41.3
2022-09-17T11:33:51.000Z,41.3
2022-09-17T11:35:01.000Z,41.3
2022-09-17T11:36:12.000Z,41.3
2022-09-17T11:37:22.000Z,41.4
2022-09-17T11:38:31.000Z,41.4
2022-09-17T11:39:40.000Z,41.3
2022-09-17T11:40:50.000Z,41.4
2022-09-17T11:42:00.000Z,41.4
2022-09-17T11:43:09.000Z,41.4
2022-09-17T11:44:18.000Z,41.4
2022-09-17T11:45:29.000Z,41.4
2022-09-17T11:46:39.000Z,41.4
2022-09-17T11:47:49.000Z,41.4
2022-09-17T11:48:59.000Z,41.4
2022-09-17T11:50:09.000Z,41.5
2022-09-17T11:51:19.000Z,41.5
2022-09-17T11:52:29.000Z,41.5
2022-09-17T11:53:39.000Z,41.4
2022-09-17T11:54:49.000Z,41.5
2022-09-17T11:56:00.000Z,41.5
2022-09-17T11:57:10.000Z,41.4
2022-09-17T11:58:20.000Z,41.4
2022-09-17T11:59:29.000Z,41.4
2022-09-17T12:00:39.000Z,41.4
2022-09-17T12:01:49.000Z,41.4
2022-09-17T12:02:59.769Z,41.4
2022-09-17T12:04:09.000Z,41.4
2022-09-17T12:05:20.000Z,41.4
2022-09-17T12:06:30.000Z,41.4
2022-09-17T12:07:39.000Z,41.4
2022-09-17T12:08:48.000Z,41.4
2022-09-17T12:09:57.000Z,41.4
2022-09-17T12:11:06.000Z,41.4
2022-09-17T12:12:16.000Z,41.4
2022-09-17T12:13:26.000Z,41.3
2022-09-17T12:14:37.000Z,41.3
2022-09-17T12:15:47.000Z,41.3
2022-09-17T12:16:57.000Z,41.3
2022-09-17T12:18:07.000Z,41.3
2022-09-17T12:19:17.000Z,41.3
2022-09-17T12:20:27.000Z,41.3
2022-09-17T12:21:37.000Z,41.3
2022-09-17T12:22:47.000Z,41.3
2022-09-17T12:23:57.000Z,41.3
2022-09-17T12:25:08.000Z,41.4
2022-09-17T12:27:27.000Z,41.4
2022-09-17T12:28:37.000Z,41.4
2022-09-17T12:29:47.000Z,41.4
2022-09-17T12:30:57.000Z,41.4
2022-09-17T12:32:07.000Z,41.4
2022-09-17T12:33:17.000Z,41.3
2022-09-17T12:34:28.000Z,41.3
2022-09-17T12:35:37.000Z,41.3
2022-09-17T12:36:46.000Z,41.2
2022-09-17T12:37:55.000Z,41.2
2022-09-17T12:39:04.000Z,41.2
2022-09-17T12:40:14.000Z,41.1
2022-09-17T12:41:24.000Z,41.1
2022-09-17T12:42:34.000Z,41
2022-09-17T12:43:45.000Z,41
2022-09-17T12:44:55.000Z,41
2022-09-17T12:46:05.000Z,40.9
2022-09-17T12:47:15.000Z,40.9
2022-09-17T12:48:25.000Z,40.9
2022-09-17T12:49:35.000Z,40.8
2022-09-17T12:50:45.000Z,40.8
2022-09-17T12:51:55.000Z,40.7
2022-09-17T12:53:05.000Z,40.6
2022-09-17T12:54:15.000Z,40.6
2022-09-17T12:55:25.000Z,40.6
2022-09-17T12:56:35.000Z,40.5
2022-09-17T12:57:45.000Z,40.6
2022-09-17T12:58:55.000Z,40.6
2022-09-17T13:00:05.000Z,40.8
2022-09-17T13:01:15.000Z,40.8
2022-09-17T13:02:24.000Z,40.9
2022-09-17T13:03:34.000Z,40.9
2022-09-17T13:04:44.000Z,40.9
2022-09-17T13:05:54.000Z,40.9
2022-09-17T13:07:04.000Z,40.9
2022-09-17T13:08:14.000Z,40.9
2022-09-17T13:09:24.000Z,41
2022-09-17T13:10:34.000Z,41
2022-09-17T13:11:44.000Z,41
2022-09-17T13:12:54.000Z,41
2022-09-17T13:14:05.000Z,41
2022-09-17T13:15:15.000Z,41.1
2022-09-17T13:16:25.000Z,41.1
2022-09-17T13:17:35.000Z,41.1
2022-09-17T13:18:44.000Z,41.1
2022-09-17T13:19:54.000Z,41.1
2022-09-17T13:21:04.000Z,41.1
2022-09-17T13:22:14.000Z,41.1
2022-09-17T13:23:25.000Z,41.2
2022-09-17T13:24:35.000Z,41.2
2022-09-17T13:25:45.000Z,41.2
2022-09-17T13:26:54.000Z,41.2
2022-09-17T13:28:03.000Z,41.2
2022-09-17T13:29:13.000Z,41.2
2022-09-17T13:30:23.000Z,41.2
2022-09-17T13:31:33.000Z,41.3
2022-09-17T13:32:44.000Z,41.3
2022-09-17T13:33:54.000Z,41.3
2022-09-17T13:35:04.000Z,41.3
2022-09-17T13:36:14.000Z,41.3
2022-09-17T13:37:24.000Z,41.3
2022-09-17T13:38:34.000Z,41.3
2022-09-17T13:39:44.000Z,41.3
2022-09-17T13:40:54.000Z,41.2
2022-09-17T13:42:04.000Z,41.2
2022-09-17T13:43:14.000Z,41.1
2022-09-17T13:44:24.000Z,41
2022-09-17T13:45:34.000Z,41
2022-09-17T13:46:44.000Z,40.9
2022-09-17T13:47:53.000Z,40.9
2022-09-17T13:49:02.000Z,40.8
2022-09-17T13:50:11.000Z,40.8
2022-09-17T13:51:20.000Z,40.8
2022-09-17T13:52:31.000Z,40.6
2022-09-17T13:53:41.000Z,40.6
2022-09-17T13:54:51.000Z,40.6
2022-09-17T13:56:01.000Z,40.5
2022-09-17T13:57:11.000Z,40.5
2022-09-17T13:58:21.000Z,40.5
2022-09-17T13:59:31.000Z,40.4
2022-09-17T14:00:41.000Z,40.4
2022-09-17T14:01:52.000Z,40.4
2022-09-17T14:03:02.000Z,40.4
2022-09-17T14:04:12.000Z,40.4
2022-09-17T14:05:22.000Z,40.3
2022-09-17T14:06:31.000Z,40.3
2022-09-17T14:07:41.000Z,40.3
2022-09-17T14:08:51.000Z,40.3
2022-09-17T14:10:01.000Z,40.3
2022-09-17T14:11:10.000Z,40.3
2022-09-17T14:12:21.000Z,40.3
2022-09-17T14:13:31.000Z,40.3
2022-09-17T14:14:40.000Z,40.2
2022-09-17T14:15:49.000Z,40.2
2022-09-17T14:16:58.000Z,40.2
2022-09-17T14:18:07.000Z,40.2
2022-09-17T14:19:17.000Z,40.2
2022-09-17T14:20:27.000Z,40.2
2022-09-17T14:21:38.000Z,40.1
2022-09-17T14:22:48.000Z,40.1
2022-09-17T14:23:58.000Z,40.1
2022-09-17T14:25:08.000Z,40.1
2022-09-17T14:26:18.000Z,40.1
2022-09-17T14:27:28.000Z,40.1
2022-09-17T14:28:38.000Z,40.1
2022-09-17T14:29:48.000Z,40.1
2022-09-17T14:32:09.000Z,40.1
2022-09-17T14:33:18.000Z,40.2
2022-09-17T14:34:28.000Z,40.2
2022-09-17T14:35:38.000Z,40.3
2022-09-17T14:36:48.000Z,40.4
2022-09-17T14:37:58.000Z,40.4
2022-09-17T14:39:08.000Z,40.5
2022-09-17T14:40:18.000Z,40.5
2022-09-17T14:41:29.000Z,40.5
2022-09-17T14:42:38.000Z,40.6
2022-09-17T14:43:47.000Z,40.6
2022-09-17T14:44:57.000Z,40.6
2022-09-17T14:46:07.000Z,40.7
2022-09-17T14:47:17.000Z,40.6
2022-09-17T14:48:27.000Z,40.6
2022-09-17T14:49:37.000Z,40.7
2022-09-17T14:50:48.000Z,40.7
2022-09-17T14:51:58.000Z,40.6
2022-09-17T14:53:08.000Z,40.5
2022-09-17T14:54:18.000Z,40.5
2022-09-17T14:55:28.000Z,40.5
2022-09-17T14:56:38.000Z,40.4
2022-09-17T14:57:48.000Z,40.4
2022-09-17T14:58:57.000Z,40.4
2022-09-17T15:00:08.000Z,40.4
2022-09-17T15:01:18.000Z,40.4
2022-09-17T15:02:28.000Z,40.3
2022-09-17T15:03:38.000Z,40.4
2022-09-17T15:04:48.000Z,40.5
2022-09-17T15:05:58.000Z,40.5
2022-09-17T15:07:07.000Z,40.5
2022-09-17T15:08:16.000Z,40.6
2022-09-17T15:09:25.000Z,40.5
2022-09-17T15:10:35.000Z,40.4
2022-09-17T15:11:45.000Z,40.4
2022-09-17T15:12:55.000Z,40.4
2022-09-17T15:14:05.000Z,40.3
2022-09-17T15:15:15.000Z,40.3
2022-09-17T15:16:25.000Z,40.3
2022-09-17T15:17:35.000Z,40.3
2022-09-17T15:18:45.000Z,40.3
2022-09-17T15:19:56.000Z,40.3
2022-09-17T15:21:06.000Z,40.3
2022-09-17T15:22:16.000Z,40.3
2022-09-17T15:23:26.000Z,40.3
2022-09-17T15:24:36.000Z,40.3
2022-09-17T15:25:45.000Z,40.2
2022-09-17T15:26:55.000Z,40.2
2022-09-17T15:28:05.000Z,40.2
2022-09-17T15:29:16.000Z,40.2
2022-09-17T15:30:26.000Z,40.1
2022-09-17T15:31:36.000Z,40.1
2022-09-17T15:32:46.000Z,40.1
2022-09-17T15:33:55.000Z,40.1
2022-09-17T15:35:04.000Z,40.1
2022-09-17T15:36:13.000Z,40.2
2022-09-17T15:37:22.000Z,40.2
2022-09-17T15:38:33.000Z,40.3
2022-09-17T15:39:42.000Z,40.3
2022-09-17T15:40:51.000Z,40.3
2022-09-17T15:42:01.000Z,40.2
2022-09-17T15:43:11.000Z,40.2
2022-09-17T15:44:21.000Z,40.2
2022-09-17T15:45:31.000Z,40.3
2022-09-17T15:46:41.000Z,40.3
2022-09-17T15:47:51.000Z,40.3
2022-09-17T15:49:02.000Z,40.3
2022-09-17T15:50:12.000Z,40.2